logo
Search for airport 
image banner adimage banner adimage banner ad
image banner ad

OEBQ - Abqaiq

Located in , Saudi Arabia

ICAO - OEBQ, IATA -

Data provided by Airmate  

General information

Coordinates: N25°54'42" E49°35'30"
Elevation is 234 feet MSL.
 
View others Airports in Ash Sharqiyah

Operational data

Special qualification required
Current time UTC:
Current local time:
METAR: OEDF 202300Z 15005KT CAVOK 24/17 Q1007 NOSIG
TAF: TAF OEDF 201500Z 2018/2124 15015KT 8000 FEW040 BKN100 PROB30 TEMPO 2109/2114 VRB25KT 5000 TSRA FEW035CB
View NOTAMs / SUP AIP / TFR affecting this airport [VIEW]
Communications frequencies: [VIEW]

Runways:

RWY identifierQFULength (ft)Width (ft)SurfaceLDA (ft)
15153°6076112ASP
33333°6076112ASP

Airport contact information

Address: Saudi Arabia

Satellite view of OEBQ